Flight Track Log - Related Links

Times and Time Zones

All times are in EDT time to prevent confusion due to time zone crossing. See the N89539 flight status page for this flight to view local times or setup timezone preferences in your user account.

Time Position Orientation Groundspeed Altitude Reporting Facility
EDT Latitude Longitude Course Direction KTS MPH feet Rate Location/Type
Sat 04:30:21 PM 34.3167 -84.0333 329° Northwest 105 121 5,800  Level Atlanta TRACON
Sat 04:31:32 PM 34.3556 -84.0614 329° Northwest 122 140 5,600 -92 Descending Atlanta Center
Sat 04:32:32 PM 34.3808 -84.0664 351° North 107 123 5,600 -50 Level Atlanta Center
Sat 04:33:32 PM 34.4078 -84.0564 17° North 98 113 5,500 -200 Descending Atlanta Center
Sat 04:34:32 PM 34.4350 -84.0614 351° North 98 113 5,200 -350 Descending Atlanta Center
Sat 04:35:32 PM 34.4558 -84.0842 318° Northwest 98 113 4,800 -50 Descending Atlanta Center
Sat 04:36:32 PM 34.4725 -84.1067 312° West 93 107 5,100 250 Climbing Atlanta Center
Sat 04:37:32 PM 34.4872 -84.1319 305° West 93 107 5,300 150 Climbing Atlanta Center
Sat 04:38:32 PM 34.5058 -84.1547 315° West 93 107 5,400 50 Climbing Atlanta Center
Sat 04:39:32 PM 34.5225 -84.1775 312° West 93 107 5,400  Level Atlanta Center
Sat 04:40:32 PM 34.5392 -84.2028 309° West 98 113 5,400 -100 Level Atlanta Center
Sat 04:41:32 PM 34.5558 -84.2281 309° West 98 113 5,200 -150 Descending Atlanta Center
Sat 04:42:32 PM 34.5747 -84.2583 307° West 111 128 5,100 -100 Descending Atlanta Center
Sat 04:43:32 PM 34.5872 -84.2886 297° West 106 122 5,000 -150 Descending Atlanta Center
Sat 04:44:32 PM 34.5994 -84.3189 296° West 97 112 4,800 -100 Descending Atlanta Center
Sat 04:45:32 PM 34.6100 -84.3492 293° West 102 117 4,800 100 Level Atlanta Center
Sat 04:46:32 PM 34.6181 -84.3819 287° West 102 117 5,000 200 Climbing Atlanta Center
Sat 04:47:32 PM 34.6244 -84.4122 284° West 102 117 5,200 150 Climbing Atlanta Center
Sat 04:48:32 PM 34.6325 -84.4478 285° West 102 117 5,300 100 Climbing Atlanta Center
Sat 04:49:32 PM 34.6450 -84.4731 301° West 102 117 5,400 100 Climbing Atlanta Center
Sat 04:50:32 PM 34.6553 -84.5033 292° West 97 112 5,500 50 Climbing Atlanta Center
Sat 04:51:32 PM 34.6678 -84.5364 295° West 91 105 5,500 -100 Level Atlanta Center
Sat 04:52:32 PM 34.6758 -84.5692 287° West 102 117 5,300 -250 Descending Atlanta Center
Sat 04:53:32 PM 34.6861 -84.6047 289° West 102 117 5,000 -250 Descending Atlanta Center
Sat 04:54:32 PM 34.7006 -84.6350 300° West 107 123 4,800 -150 Descending Atlanta Center
Sat 04:55:32 PM 34.7131 -84.6656 296° West 107 123 4,700 -200 Descending Atlanta Center
Sat 04:56:32 PM 34.7297 -84.6933 306° West 107 123 4,400 -300 Descending Atlanta Center
Sat 04:57:32 PM 34.7461 -84.7239 303° West 107 123 4,100 -250 Descending Atlanta Center
Sat 04:58:32 PM 34.7564 -84.7542 292° West 107 123 3,900 -150 Descending Atlanta Center
Sat 04:59:32 PM 34.7667 -84.7847 292° West 102 117 3,800  Descending Atlanta Center
Sat 05:00:32 PM 34.7831 -84.8128 305° West 102 117 3,900 100 Climbing Atlanta Center
Sat 05:01:32 PM 34.8039 -84.8356 318° Northwest 102 117 4,000 150 Climbing Atlanta Center
Sat 05:02:32 PM 34.8206 -84.8586 311° West 102 117 4,200 250 Climbing Atlanta Center
Sat 05:03:32 PM 34.8350 -84.8839 305° West 102 117 4,500 300 Climbing Atlanta Center
Sat 05:04:32 PM 34.8514 -84.9069 311° West 102 117 4,800 150 Climbing Atlanta Center
Sat 05:05:32 PM 34.8722 -84.9300 318° Northwest 102 117 4,800 -100 Level Atlanta Center
Sat 05:06:32 PM 34.8886 -84.9528 311° West 102 117 4,600 -150 Descending Atlanta Center
Sat 05:07:32 PM 34.9031 -84.9858 298° West 102 117 4,500 -50 Descending Atlanta Center
Sat 05:08:32 PM 34.9217 -85.0117 311° West 108 124 4,500 -50 Level Atlanta Center
Sat 05:09:32 PM 34.9422 -85.0344 318° Northwest 103 119 4,400  Descending Atlanta Center
Sat 05:10:32 PM 34.9631 -85.0575 318° Northwest 103 119 4,500  Climbing Atlanta Center
Sat 05:12:00 PM 35.0106 -85.1166 314° West  Level FlightAware Approximate
Sat 05:19:00 PM 35.2371 -85.3999 314° West  Level FlightAware Approximate
Sat 05:19:44 PM 35.1089 -85.3033 307° West 95 109 4,400  Level Memphis Center
Sat 05:20:00 PM 35.2694 -85.4405 314° West  Level FlightAware Approximate
Sat 05:20:44 PM 35.1247 -85.3331 303° West 95 109 4,400  Level Memphis Center
Sat 05:21:00 PM 35.3016 -85.4811 314° West  Level FlightAware Approximate
Sat 05:21:44 PM 35.1383 -85.3650 298° West 95 109 4,300  Level Memphis Center
Sat 05:22:00 PM 35.3336 -85.5226 313° West  Level FlightAware Approximate
Sat 05:22:44 PM 35.1519 -85.3922 301° West 100 115 4,200  Level Memphis Center
Sat 05:23:00 PM 35.3650 -85.5643 313° West  Level FlightAware Approximate
Sat 05:23:44 PM 35.1700 -85.4242 305° West 100 115 4,200  Level Memphis Center
Sat 05:24:00 PM 35.3963 -85.6061 313° West  Level FlightAware Approximate
Sat 05:24:44 PM 35.1878 -85.4511 309° West 100 115 4,200  Level Memphis Center
Sat 05:25:00 PM 35.4265 -85.6491 307° West  Level FlightAware Approximate
Sat 05:25:44 PM 35.2078 -85.4831 307° West 100 115 4,000  Level Memphis Center
Sat 05:26:44 PM 35.2236 -85.5150 301° West 100 115 6,500 1,250 Climbing Memphis Center
Sat 05:27:44 PM 35.2369 -85.5397 303° West 100 115 6,500 -1,150 Level Memphis Center
Sat 05:28:44 PM 35.2547 -85.5617 315° West 135 155 4,200 -1,100 Descending Memphis Center
Sat 05:29:44 PM 35.2764 -85.5858 318° Northwest 110 127 4,300  Climbing Memphis Center
Sat 05:30:44 PM 35.2944 -85.6178 305° West 105 121 4,200 -50 Descending Memphis Center
Sat 05:31:44 PM 35.3200 -85.6317 336° Northwest 105 121 4,200 -50 Level Memphis Center
Sat 05:32:44 PM 35.3375 -85.6536 314° West 99 114 4,100 50 Descending Memphis Center
Sat 05:33:44 PM 35.3550 -85.6781 311° West 99 114 4,300 50 Climbing Memphis Center
Sat 05:34:44 PM 35.3789 -85.7047 318° Northwest 99 114 4,200 1,100 Descending Memphis Center
Sat 05:35:44 PM 35.4008 -85.7289 318° Northwest 99 114 6,500 1,150 Climbing Memphis Center
Sat 05:36:44 PM 35.4225 -85.7531 318° Northwest 99 114 6,500  Level Memphis Center
Sat 05:37:44 PM 35.4336 -85.7703 308° West 99 114 6,500 -1,200 Level Memphis Center
Sat 05:38:44 PM 35.4533 -85.7947 315° West 146 168 4,100 -1,300 Descending Memphis Center
Sat 05:39:44 PM 35.4689 -85.8244 303° West 117 135 3,900 -50 Descending Memphis Center
Sat 05:40:44 PM 35.4864 -85.8492 311° West 107 123 4,000 100 Climbing Memphis Center
Sat 05:41:44 PM 35.5061 -85.8736 315° West 101 116 4,100  Climbing Memphis Center
Sat 05:42:44 PM 35.5178 -85.9033 296° West 101 116 4,000 -100 Descending Memphis Center
Sat 05:43:44 PM 35.5333 -85.9308 305° West 101 116 3,900 50 Descending Memphis Center
Sat 05:44:44 PM 35.5467 -85.9606 299° West 96 110 4,100  Climbing Memphis Center
Sat 05:45:44 PM 35.5622 -85.9878 305° West 96 110 3,900  Descending Memphis Center
Sat 05:46:44 PM 35.5800 -86.0150 309° West 96 110 4,100 50 Climbing Memphis Center
Sat 05:47:44 PM 35.5975 -86.0394 311° West 96 110 4,000 -100 Descending Memphis Center
Sat 05:48:44 PM 35.6153 -86.0667 309° West 96 110 3,900 -50 Descending Memphis Center
Sat 05:49:44 PM 35.6328 -86.0964 306° West 104 120 3,900  Level Memphis Center
Sat 05:50:44 PM 35.6483 -86.1239 305° West 97 112 3,900  Level Memphis Center
Sat 05:52:00 PM 35.6838 -86.1632 318° Northwest  Level FlightAware Approximate
Sat 05:59:00 PM 35.8667 -86.3667 313° West  Level FlightAware Approximate
Sat 06:00:00 PM 35.8775 -86.3775 313° West  Level Estimated
Sat 06:01:00 PM 35.8775 -86.3775 313° West  Level Estimated
Sat 06:02:00 PM 35.8775 -86.3775 313° West  Level Estimated
Sat 06:03:00 PM 35.8775 -86.3775 313° West  Level Estimated
Sat 06:04:00 PM 35.8775 -86.3775 313° West  Level Estimated
Sat 06:05:00 PM 35.8775 -86.3775 313° West  Level Estimated
Sat 06:06:00 PM 35.8775 -86.3775 313° West  Level Estimated
Sat 06:07:00 PM 35.8775 -86.3775 313° West  Level Estimated
Sat 06:08:00 PM 35.8775 -86.3775 313° West  Level Estimated
Sat 06:09:00 PM 35.8775 -86.3775 313° West  Level Estimated
Sat 06:10:00 PM 35.8775 -86.3775 313° West  Level Estimated
Sat 06:11:00 PM 35.8775 -86.3775 313° West  Level Estimated

Login

Don't have an account? Register now (free) for customized features, flight alerts, and more!